Weather at Liverpool John Lennon Airport

Public forecast

Using degrees Celsius for public forecast. Weather courtesy of forecast.io.

Current aviation weather report (METAR) for Liverpool John Lennon Airport

Report is more than 6 hours old.

2022/11/14 15:20 (retrieved 2 years ago)

EGGP 141520Z 14004KT 070V200 9999 SCT010 BKN014 13/11 Q1004

Aviation forecast (TAF) for Liverpool John Lennon Airport

Forecast is more than 12 hours old.

2023/02/22 18:00 (retrieved 1 year ago)

TAF EGGP 221655Z 2218/2318 33012KT 9999 SCT025 PROB30 TEMPO 2218/2222 6000 SHRA BKN014 PROB30 TEMPO 2218/2306 33015G25KT PROB30 TEMPO 2222/2303 BKN014